sensor_id;sensor_type;location;lat;lon;timestamp;P1;durP1;ratioP1;P2;durP2;ratioP2
70970;SDS011;58632;51.718;19.446;2023-08-06T00:00:16;4.90;;;3.30;;
70970;SDS011;58632;51.718;19.446;2023-08-06T00:03:04;4.60;;;3.30;;
70970;SDS011;58632;51.718;19.446;2023-08-06T00:05:31;4.50;;;3.30;;
70970;SDS011;58632;51.718;19.446;2023-08-06T00:07:57;4.00;;;2.60;;
70970;SDS011;58632;51.718;19.446;2023-08-06T00:10:25;4.20;;;2.90;;
70970;SDS011;58632;51.718;19.446;2023-08-06T00:12:51;3.60;;;2.80;;
70970;SDS011;58632;51.718;19.446;2023-08-06T00:15:16;4.20;;;2.80;;
70970;SDS011;58632;51.718;19.446;2023-08-06T00:17:42;5.70;;;2.90;;
70970;SDS011;58632;51.718;19.446;2023-08-06T00:20:08;3.80;;;2.70;;
70970;SDS011;58632;51.718;19.446;2023-08-06T00:22:34;4.50;;;2.90;;
70970;SDS011;58632;51.718;19.446;2023-08-06T00:25:01;4.60;;;2.50;;
70970;SDS011;58632;51.718;19.446;2023-08-06T00:27:27;4.00;;;2.60;;
70970;SDS011;58632;51.718;19.446;2023-08-06T00:29:53;3.60;;;2.20;;
70970;SDS011;58632;51.718;19.446;2023-08-06T00:32:19;2.60;;;2.20;;
70970;SDS011;58632;51.718;19.446;2023-08-06T00:34:44;4.30;;;2.40;;
70970;SDS011;58632;51.718;19.446;2023-08-06T00:37:09;3.50;;;2.60;;
70970;SDS011;58632;51.718;19.446;2023-08-06T00:39:35;5.00;;;2.70;;
70970;SDS011;58632;51.718;19.446;2023-08-06T00:42:00;4.50;;;2.20;;
70970;SDS011;58632;51.718;19.446;2023-08-06T00:44:26;4.30;;;2.20;;
70970;SDS011;58632;51.718;19.446;2023-08-06T00:46:52;2.70;;;2.10;;
70970;SDS011;58632;51.718;19.446;2023-08-06T00:49:18;2.80;;;2.00;;
70970;SDS011;58632;51.718;19.446;2023-08-06T00:51:44;2.40;;;1.90;;
70970;SDS011;58632;51.718;19.446;2023-08-06T00:54:09;4.00;;;2.10;;
70970;SDS011;58632;51.718;19.446;2023-08-06T00:56:35;2.70;;;2.20;;
70970;SDS011;58632;51.718;19.446;2023-08-06T00:59:06;2.90;;;1.90;;
70970;SDS011;58632;51.718;19.446;2023-08-06T01:01:32;2.40;;;1.90;;
70970;SDS011;58632;51.718;19.446;2023-08-06T01:03:57;3.20;;;2.20;;
70970;SDS011;58632;51.718;19.446;2023-08-06T01:12:03;2.50;;;1.90;;
70970;SDS011;58632;51.718;19.446;2023-08-06T01:17:40;3.00;;;2.00;;
70970;SDS011;58632;51.718;19.446;2023-08-06T01:20:06;4.00;;;2.60;;
70970;SDS011;58632;51.718;19.446;2023-08-06T01:22:32;3.30;;;2.50;;
70970;SDS011;58632;51.718;19.446;2023-08-06T01:24:58;2.90;;;2.60;;
70970;SDS011;58632;51.718;19.446;2023-08-06T01:30:00;2.80;;;2.20;;
70970;SDS011;58632;51.718;19.446;2023-08-06T01:32:47;4.20;;;2.50;;
70970;SDS011;58632;51.718;19.446;2023-08-06T01:35:16;3.10;;;2.50;;
70970;SDS011;58632;51.718;19.446;2023-08-06T01:37:44;3.10;;;2.40;;
70970;SDS011;58632;51.718;19.446;2023-08-06T01:40:12;2.80;;;2.50;;
70970;SDS011;58632;51.718;19.446;2023-08-06T01:42:38;3.10;;;2.70;;
70970;SDS011;58632;51.718;19.446;2023-08-06T01:45:05;5.00;;;3.00;;
70970;SDS011;58632;51.718;19.446;2023-08-06T01:47:32;4.30;;;3.00;;
70970;SDS011;58632;51.718;19.446;2023-08-06T01:49:57;3.40;;;2.80;;
70970;SDS011;58632;51.718;19.446;2023-08-06T01:52:25;3.90;;;3.10;;
70970;SDS011;58632;51.718;19.446;2023-08-06T01:54:50;3.70;;;3.10;;
70970;SDS011;58632;51.718;19.446;2023-08-06T01:57:16;3.90;;;3.30;;
70970;SDS011;58632;51.718;19.446;2023-08-06T01:59:46;5.70;;;3.80;;
70970;SDS011;58632;51.718;19.446;2023-08-06T02:02:12;4.90;;;3.70;;
70970;SDS011;58632;51.718;19.446;2023-08-06T02:04:37;5.50;;;3.80;;
70970;SDS011;58632;51.718;19.446;2023-08-06T02:07:03;5.30;;;3.70;;
70970;SDS011;58632;51.718;19.446;2023-08-06T02:09:29;6.60;;;4.00;;
70970;SDS011;58632;51.718;19.446;2023-08-06T02:11:54;4.30;;;3.70;;
70970;SDS011;58632;51.718;19.446;2023-08-06T02:14:22;4.40;;;4.00;;
70970;SDS011;58632;51.718;19.446;2023-08-06T02:16:48;5.20;;;3.80;;
70970;SDS011;58632;51.718;19.446;2023-08-06T02:19:15;5.20;;;3.70;;
70970;SDS011;58632;51.718;19.446;2023-08-06T02:21:40;6.10;;;4.40;;
70970;SDS011;58632;51.718;19.446;2023-08-06T02:24:06;5.60;;;3.70;;
70970;SDS011;58632;51.718;19.446;2023-08-06T02:26:32;4.20;;;3.80;;
70970;SDS011;58632;51.718;19.446;2023-08-06T02:28:57;4.30;;;3.40;;
70970;SDS011;58632;51.718;19.446;2023-08-06T02:31:23;6.20;;;3.80;;
70970;SDS011;58632;51.718;19.446;2023-08-06T02:33:48;4.10;;;3.40;;
70970;SDS011;58632;51.718;19.446;2023-08-06T02:36:14;3.50;;;2.90;;
70970;SDS011;58632;51.718;19.446;2023-08-06T02:38:39;5.10;;;3.20;;
70970;SDS011;58632;51.718;19.446;2023-08-06T02:41:05;3.80;;;3.10;;
70970;SDS011;58632;51.718;19.446;2023-08-06T02:43:32;4.00;;;3.20;;
70970;SDS011;58632;51.718;19.446;2023-08-06T02:45:58;3.90;;;3.20;;
70970;SDS011;58632;51.718;19.446;2023-08-06T02:48:25;4.40;;;3.60;;
70970;SDS011;58632;51.718;19.446;2023-08-06T02:50:51;4.20;;;3.60;;
70970;SDS011;58632;51.718;19.446;2023-08-06T02:53:16;4.00;;;3.40;;
70970;SDS011;58632;51.718;19.446;2023-08-06T02:55:48;5.10;;;3.10;;
70970;SDS011;58632;51.718;19.446;2023-08-06T02:58:16;3.50;;;2.70;;
70970;SDS011;58632;51.718;19.446;2023-08-06T03:00:42;3.60;;;2.60;;
70970;SDS011;58632;51.718;19.446;2023-08-06T03:03:09;4.50;;;2.90;;
70970;SDS011;58632;51.718;19.446;2023-08-06T03:05:35;3.00;;;2.70;;
70970;SDS011;58632;51.718;19.446;2023-08-06T03:08:00;2.90;;;2.60;;
70970;SDS011;58632;51.718;19.446;2023-08-06T03:10:26;2.90;;;2.50;;
70970;SDS011;58632;51.718;19.446;2023-08-06T03:12:52;3.10;;;2.60;;
70970;SDS011;58632;51.718;19.446;2023-08-06T03:15:17;2.50;;;2.20;;
70970;SDS011;58632;51.718;19.446;2023-08-06T03:17:43;2.70;;;2.40;;
70970;SDS011;58632;51.718;19.446;2023-08-06T03:20:09;2.80;;;2.40;;
70970;SDS011;58632;51.718;19.446;2023-08-06T03:22:35;4.10;;;2.60;;
70970;SDS011;58632;51.718;19.446;2023-08-06T03:25:00;5.00;;;2.50;;
70970;SDS011;58632;51.718;19.446;2023-08-06T03:27:26;3.30;;;2.70;;
70970;SDS011;58632;51.718;19.446;2023-08-06T03:29:52;5.20;;;2.70;;
70970;SDS011;58632;51.718;19.446;2023-08-06T03:32:17;2.90;;;2.40;;
70970;SDS011;58632;51.718;19.446;2023-08-06T03:34:43;3.70;;;2.80;;
70970;SDS011;58632;51.718;19.446;2023-08-06T03:37:11;4.10;;;3.20;;
70970;SDS011;58632;51.718;19.446;2023-08-06T03:39:36;4.30;;;2.90;;
70970;SDS011;58632;51.718;19.446;2023-08-06T03:42:02;3.50;;;2.50;;
70970;SDS011;58632;51.718;19.446;2023-08-06T03:44:27;3.20;;;2.80;;
70970;SDS011;58632;51.718;19.446;2023-08-06T03:46:53;3.90;;;3.00;;
70970;SDS011;58632;51.718;19.446;2023-08-06T03:49:19;3.80;;;2.90;;
70970;SDS011;58632;51.718;19.446;2023-08-06T03:51:44;3.60;;;3.20;;
70970;SDS011;58632;51.718;19.446;2023-08-06T03:54:11;4.40;;;3.10;;
70970;SDS011;58632;51.718;19.446;2023-08-06T03:56:37;3.60;;;3.30;;
70970;SDS011;58632;51.718;19.446;2023-08-06T03:59:02;4.80;;;3.30;;
70970;SDS011;58632;51.718;19.446;2023-08-06T04:01:28;4.20;;;3.60;;
70970;SDS011;58632;51.718;19.446;2023-08-06T04:03:53;3.40;;;2.70;;
70970;SDS011;58632;51.718;19.446;2023-08-06T04:06:19;4.00;;;3.30;;
70970;SDS011;58632;51.718;19.446;2023-08-06T04:08:45;3.60;;;3.00;;
70970;SDS011;58632;51.718;19.446;2023-08-06T04:11:10;4.10;;;3.70;;
70970;SDS011;58632;51.718;19.446;2023-08-06T04:13:37;4.20;;;3.60;;
70970;SDS011;58632;51.718;19.446;2023-08-06T04:16:03;4.50;;;4.00;;
70970;SDS011;58632;51.718;19.446;2023-08-06T04:18:29;4.10;;;3.70;;
70970;SDS011;58632;51.718;19.446;2023-08-06T04:20:55;5.50;;;3.50;;
70970;SDS011;58632;51.718;19.446;2023-08-06T04:23:24;4.50;;;3.90;;
70970;SDS011;58632;51.718;19.446;2023-08-06T04:25:50;5.10;;;4.10;;
70970;SDS011;58632;51.718;19.446;2023-08-06T04:28:15;6.10;;;4.60;;
70970;SDS011;58632;51.718;19.446;2023-08-06T04:30:41;6.80;;;4.70;;
70970;SDS011;58632;51.718;19.446;2023-08-06T04:33:06;7.30;;;4.50;;
70970;SDS011;58632;51.718;19.446;2023-08-06T04:35:32;5.10;;;4.40;;
70970;SDS011;58632;51.718;19.446;2023-08-06T04:37:57;6.20;;;5.00;;
70970;SDS011;58632;51.718;19.446;2023-08-06T04:40:23;6.50;;;4.60;;
70970;SDS011;58632;51.718;19.446;2023-08-06T04:42:51;6.70;;;5.40;;
70970;SDS011;58632;51.718;19.446;2023-08-06T04:45:17;6.10;;;5.50;;
70970;SDS011;58632;51.718;19.446;2023-08-06T04:47:45;7.30;;;5.20;;
70970;SDS011;58632;51.718;19.446;2023-08-06T04:50:10;7.40;;;5.20;;
70970;SDS011;58632;51.718;19.446;2023-08-06T04:52:38;5.70;;;5.10;;
70970;SDS011;58632;51.718;19.446;2023-08-06T04:55:04;6.40;;;5.80;;
70970;SDS011;58632;51.718;19.446;2023-08-06T04:57:31;6.80;;;6.10;;
70970;SDS011;58632;51.718;19.446;2023-08-06T04:59:59;8.50;;;5.60;;
70970;SDS011;58632;51.718;19.446;2023-08-06T05:02:25;7.20;;;5.80;;
70970;SDS011;58632;51.718;19.446;2023-08-06T05:04:50;5.80;;;5.20;;
70970;SDS011;58632;51.718;19.446;2023-08-06T05:07:16;6.60;;;5.20;;
70970;SDS011;58632;51.718;19.446;2023-08-06T05:09:42;6.00;;;5.30;;
70970;SDS011;58632;51.718;19.446;2023-08-06T05:12:07;5.90;;;5.30;;
70970;SDS011;58632;51.718;19.446;2023-08-06T05:14:33;5.70;;;5.10;;
70970;SDS011;58632;51.718;19.446;2023-08-06T05:17:01;6.10;;;5.20;;
70970;SDS011;58632;51.718;19.446;2023-08-06T05:19:28;6.20;;;5.60;;
70970;SDS011;58632;51.718;19.446;2023-08-06T05:21:53;12.60;;;11.40;;
70970;SDS011;58632;51.718;19.446;2023-08-06T05:24:19;7.70;;;6.90;;
70970;SDS011;58632;51.718;19.446;2023-08-06T05:26:44;6.70;;;6.10;;
70970;SDS011;58632;51.718;19.446;2023-08-06T05:29:12;6.50;;;5.20;;
70970;SDS011;58632;51.718;19.446;2023-08-06T05:31:38;7.60;;;4.90;;
70970;SDS011;58632;51.718;19.446;2023-08-06T05:34:04;5.90;;;5.30;;
70970;SDS011;58632;51.718;19.446;2023-08-06T05:36:29;5.40;;;4.70;;
70970;SDS011;58632;51.718;19.446;2023-08-06T05:38:55;7.20;;;5.60;;
70970;SDS011;58632;51.718;19.446;2023-08-06T05:41:20;6.20;;;4.90;;
70970;SDS011;58632;51.718;19.446;2023-08-06T05:43:46;5.60;;;4.80;;
70970;SDS011;58632;51.718;19.446;2023-08-06T05:46:12;6.00;;;5.20;;
70970;SDS011;58632;51.718;19.446;2023-08-06T05:48:37;6.50;;;5.40;;
70970;SDS011;58632;51.718;19.446;2023-08-06T05:51:05;7.20;;;5.10;;
70970;SDS011;58632;51.718;19.446;2023-08-06T05:53:31;7.70;;;5.80;;
70970;SDS011;58632;51.718;19.446;2023-08-06T05:55:57;5.70;;;5.10;;
70970;SDS011;58632;51.718;19.446;2023-08-06T05:58:22;6.20;;;5.10;;
70970;SDS011;58632;51.718;19.446;2023-08-06T06:00:51;6.80;;;5.10;;
70970;SDS011;58632;51.718;19.446;2023-08-06T06:03:16;6.30;;;5.20;;
70970;SDS011;58632;51.718;19.446;2023-08-06T06:05:42;6.20;;;5.40;;
70970;SDS011;58632;51.718;19.446;2023-08-06T06:08:08;6.80;;;5.20;;
70970;SDS011;58632;51.718;19.446;2023-08-06T06:10:34;6.80;;;5.10;;
70970;SDS011;58632;51.718;19.446;2023-08-06T06:15:25;5.20;;;4.40;;
70970;SDS011;58632;51.718;19.446;2023-08-06T06:17:51;5.70;;;4.90;;
70970;SDS011;58632;51.718;19.446;2023-08-06T06:20:17;5.70;;;4.40;;
70970;SDS011;58632;51.718;19.446;2023-08-06T06:22:42;6.20;;;5.00;;
70970;SDS011;58632;51.718;19.446;2023-08-06T06:25:08;7.00;;;5.10;;
70970;SDS011;58632;51.718;19.446;2023-08-06T06:27:35;5.90;;;5.00;;
70970;SDS011;58632;51.718;19.446;2023-08-06T06:30:00;5.70;;;4.90;;
70970;SDS011;58632;51.718;19.446;2023-08-06T06:32:26;7.90;;;5.00;;
70970;SDS011;58632;51.718;19.446;2023-08-06T06:34:51;5.10;;;4.60;;
70970;SDS011;58632;51.718;19.446;2023-08-06T06:37:17;6.00;;;5.30;;
70970;SDS011;58632;51.718;19.446;2023-08-06T06:39:43;6.60;;;5.10;;
70970;SDS011;58632;51.718;19.446;2023-08-06T06:42:09;7.70;;;5.50;;
70970;SDS011;58632;51.718;19.446;2023-08-06T06:44:35;5.80;;;5.10;;
70970;SDS011;58632;51.718;19.446;2023-08-06T06:47:00;6.70;;;5.20;;
70970;SDS011;58632;51.718;19.446;2023-08-06T06:49:26;6.60;;;4.80;;
70970;SDS011;58632;51.718;19.446;2023-08-06T06:51:55;8.70;;;5.30;;
70970;SDS011;58632;51.718;19.446;2023-08-06T06:54:20;8.20;;;5.20;;
70970;SDS011;58632;51.718;19.446;2023-08-06T06:56:46;8.10;;;6.10;;
70970;SDS011;58632;51.718;19.446;2023-08-06T06:59:14;6.30;;;5.00;;
70970;SDS011;58632;51.718;19.446;2023-08-06T07:01:41;6.50;;;5.60;;
70970;SDS011;58632;51.718;19.446;2023-08-06T07:04:09;5.60;;;5.10;;
70970;SDS011;58632;51.718;19.446;2023-08-06T07:06:35;6.60;;;5.40;;
70970;SDS011;58632;51.718;19.446;2023-08-06T07:09:03;9.10;;;5.60;;
70970;SDS011;58632;51.718;19.446;2023-08-06T07:11:28;6.40;;;5.70;;
70970;SDS011;58632;51.718;19.446;2023-08-06T07:13:57;9.60;;;6.70;;
70970;SDS011;58632;51.718;19.446;2023-08-06T07:16:24;7.70;;;6.50;;
